sensor_id;sensor_type;location;lat;lon;timestamp;P1;durP1;ratioP1;P2;durP2;ratioP2
34359;SDS011;20624;55.870;26.506;2022-10-31T00:00:58;1.02;;;0.20;;
34359;SDS011;20624;55.870;26.506;2022-10-31T00:03:26;1.38;;;0.15;;
34359;SDS011;20624;55.870;26.506;2022-10-31T00:05:57;0.50;;;0.10;;
34359;SDS011;20624;55.870;26.506;2022-10-31T00:08:28;3.03;;;0.43;;
34359;SDS011;20624;55.870;26.506;2022-10-31T00:10:55;2.53;;;0.32;;
34359;SDS011;20624;55.870;26.506;2022-10-31T00:13:23;1.95;;;0.20;;
34359;SDS011;20624;55.870;26.506;2022-10-31T00:15:51;2.35;;;0.30;;
34359;SDS011;20624;55.870;26.506;2022-10-31T00:18:18;1.85;;;0.32;;
34359;SDS011;20624;55.870;26.506;2022-10-31T00:20:46;1.88;;;0.22;;
34359;SDS011;20624;55.870;26.506;2022-10-31T00:23:13;1.90;;;0.30;;
34359;SDS011;20624;55.870;26.506;2022-10-31T00:25:41;0.45;;;0.15;;
34359;SDS011;20624;55.870;26.506;2022-10-31T00:28:09;1.05;;;0.17;;
34359;SDS011;20624;55.870;26.506;2022-10-31T00:30:39;1.80;;;0.25;;
34359;SDS011;20624;55.870;26.506;2022-10-31T00:33:07;1.75;;;0.22;;
34359;SDS011;20624;55.870;26.506;2022-10-31T00:35:34;1.15;;;0.15;;
34359;SDS011;20624;55.870;26.506;2022-10-31T00:38:02;1.52;;;0.22;;
34359;SDS011;20624;55.870;26.506;2022-10-31T00:40:29;1.85;;;0.28;;
34359;SDS011;20624;55.870;26.506;2022-10-31T00:42:57;2.60;;;0.30;;
34359;SDS011;20624;55.870;26.506;2022-10-31T00:45:28;0.50;;;0.10;;
34359;SDS011;20624;55.870;26.506;2022-10-31T00:47:55;2.10;;;0.25;;
34359;SDS011;20624;55.870;26.506;2022-10-31T00:50:26;1.08;;;0.20;;
34359;SDS011;20624;55.870;26.506;2022-10-31T00:52:55;1.45;;;0.28;;
34359;SDS011;20624;55.870;26.506;2022-10-31T00:55:24;1.83;;;0.30;;
34359;SDS011;20624;55.870;26.506;2022-10-31T00:57:51;1.63;;;0.22;;
34359;SDS011;20624;55.870;26.506;2022-10-31T01:00:19;2.53;;;0.25;;
34359;SDS011;20624;55.870;26.506;2022-10-31T01:02:47;1.15;;;0.10;;
34359;SDS011;20624;55.870;26.506;2022-10-31T01:05:14;0.82;;;0.10;;
34359;SDS011;20624;55.870;26.506;2022-10-31T01:07:42;3.72;;;0.45;;
34359;SDS011;20624;55.870;26.506;2022-10-31T01:10:10;1.55;;;0.20;;
34359;SDS011;20624;55.870;26.506;2022-10-31T01:12:42;1.20;;;0.10;;
34359;SDS011;20624;55.870;26.506;2022-10-31T01:15:12;0.95;;;0.20;;
34359;SDS011;20624;55.870;26.506;2022-10-31T01:17:40;1.85;;;0.20;;
34359;SDS011;20624;55.870;26.506;2022-10-31T01:20:08;0.22;;;0.05;;
34359;SDS011;20624;55.870;26.506;2022-10-31T01:22:36;2.10;;;0.30;;
34359;SDS011;20624;55.870;26.506;2022-10-31T01:25:04;0.75;;;0.10;;
34359;SDS011;20624;55.870;26.506;2022-10-31T01:27:33;1.58;;;0.30;;
34359;SDS011;20624;55.870;26.506;2022-10-31T01:30:01;2.03;;;0.30;;
34359;SDS011;20624;55.870;26.506;2022-10-31T01:32:29;2.70;;;0.38;;
34359;SDS011;20624;55.870;26.506;2022-10-31T01:34:57;3.00;;;0.32;;
34359;SDS011;20624;55.870;26.506;2022-10-31T01:37:24;0.52;;;0.10;;
34359;SDS011;20624;55.870;26.506;2022-10-31T01:39:55;1.15;;;0.17;;
34359;SDS011;20624;55.870;26.506;2022-10-31T01:42:23;1.02;;;0.17;;
34359;SDS011;20624;55.870;26.506;2022-10-31T01:44:52;2.42;;;0.30;;
34359;SDS011;20624;55.870;26.506;2022-10-31T01:47:26;2.05;;;0.30;;
34359;SDS011;20624;55.870;26.506;2022-10-31T01:50:00;1.30;;;0.20;;
34359;SDS011;20624;55.870;26.506;2022-10-31T01:52:36;1.80;;;0.30;;
34359;SDS011;20624;55.870;26.506;2022-10-31T01:55:20;0.40;;;0.10;;
34359;SDS011;20624;55.870;26.506;2022-10-31T01:57:59;2.05;;;0.30;;
34359;SDS011;20624;55.870;26.506;2022-10-31T02:00:29;2.70;;;0.38;;
34359;SDS011;20624;55.870;26.506;2022-10-31T02:02:57;0.73;;;0.10;;
34359;SDS011;20624;55.870;26.506;2022-10-31T02:05:27;0.95;;;0.17;;
34359;SDS011;20624;55.870;26.506;2022-10-31T02:08:07;0.95;;;0.10;;
34359;SDS011;20624;55.870;26.506;2022-10-31T02:10:42;2.08;;;0.30;;
34359;SDS011;20624;55.870;26.506;2022-10-31T02:13:10;0.85;;;0.13;;
34359;SDS011;20624;55.870;26.506;2022-10-31T02:15:39;0.10;;;0.00;;
34359;SDS011;20624;55.870;26.506;2022-10-31T02:20:39;2.03;;;0.30;;
34359;SDS011;20624;55.870;26.506;2022-10-31T02:23:30;1.63;;;0.30;;
34359;SDS011;20624;55.870;26.506;2022-10-31T02:26:08;1.33;;;0.17;;
34359;SDS011;20624;55.870;26.506;2022-10-31T02:34:53;2.00;;;0.30;;
34359;SDS011;20624;55.870;26.506;2022-10-31T02:37:27;2.53;;;0.30;;
34359;SDS011;20624;55.870;26.506;2022-10-31T02:40:10;1.00;;;0.10;;
34359;SDS011;20624;55.870;26.506;2022-10-31T02:43:05;1.10;;;0.17;;
34359;SDS011;20624;55.870;26.506;2022-10-31T02:48:12;1.50;;;0.20;;
34359;SDS011;20624;55.870;26.506;2022-10-31T02:50:49;2.70;;;0.38;;
34359;SDS011;20624;55.870;26.506;2022-10-31T02:53:22;1.13;;;0.20;;
34359;SDS011;20624;55.870;26.506;2022-10-31T02:55:51;1.65;;;0.22;;
34359;SDS011;20624;55.870;26.506;2022-10-31T02:58:22;1.05;;;0.20;;
34359;SDS011;20624;55.870;26.506;2022-10-31T03:09:19;3.70;;;0.65;;
34359;SDS011;20624;55.870;26.506;2022-10-31T03:17:28;0.63;;;0.17;;
34359;SDS011;20624;55.870;26.506;2022-10-31T03:20:04;1.35;;;0.20;;
34359;SDS011;20624;55.870;26.506;2022-10-31T03:22:36;0.00;;;0.00;;
34359;SDS011;20624;55.870;26.506;2022-10-31T03:25:06;2.47;;;0.40;;
34359;SDS011;20624;55.870;26.506;2022-10-31T03:27:35;1.88;;;0.30;;
34359;SDS011;20624;55.870;26.506;2022-10-31T03:30:05;2.08;;;0.25;;
34359;SDS011;20624;55.870;26.506;2022-10-31T03:32:44;1.48;;;0.22;;
34359;SDS011;20624;55.870;26.506;2022-10-31T03:35:23;0.20;;;0.00;;
34359;SDS011;20624;55.870;26.506;2022-10-31T03:37:52;1.50;;;0.20;;
34359;SDS011;20624;55.870;26.506;2022-10-31T03:40:21;1.15;;;0.15;;
34359;SDS011;20624;55.870;26.506;2022-10-31T03:42:59;1.95;;;0.25;;
34359;SDS011;20624;55.870;26.506;2022-10-31T03:45:35;1.55;;;0.20;;
34359;SDS011;20624;55.870;26.506;2022-10-31T03:48:07;1.08;;;0.20;;
34359;SDS011;20624;55.870;26.506;2022-10-31T03:53:30;1.90;;;0.20;;
34359;SDS011;20624;55.870;26.506;2022-10-31T03:56:01;0.52;;;0.10;;
34359;SDS011;20624;55.870;26.506;2022-10-31T03:58:36;5.07;;;0.65;;
34359;SDS011;20624;55.870;26.506;2022-10-31T04:01:06;2.70;;;0.40;;
34359;SDS011;20624;55.870;26.506;2022-10-31T04:03:40;3.35;;;0.32;;
34359;SDS011;20624;55.870;26.506;2022-10-31T04:06:08;2.50;;;0.40;;
34359;SDS011;20624;55.870;26.506;2022-10-31T04:08:41;7.25;;;1.02;;
34359;SDS011;20624;55.870;26.506;2022-10-31T04:11:23;2.20;;;0.30;;
34359;SDS011;20624;55.870;26.506;2022-10-31T04:13:52;1.20;;;0.22;;
34359;SDS011;20624;55.870;26.506;2022-10-31T04:16:21;5.43;;;0.70;;
34359;SDS011;20624;55.870;26.506;2022-10-31T04:18:49;8.02;;;1.02;;
34359;SDS011;20624;55.870;26.506;2022-10-31T04:21:17;0.85;;;0.10;;
34359;SDS011;20624;55.870;26.506;2022-10-31T04:23:44;8.82;;;1.15;;
34359;SDS011;20624;55.870;26.506;2022-10-31T04:26:12;3.78;;;0.60;;
34359;SDS011;20624;55.870;26.506;2022-10-31T04:28:40;5.47;;;0.73;;
34359;SDS011;20624;55.870;26.506;2022-10-31T04:31:09;1.75;;;0.30;;
34359;SDS011;20624;55.870;26.506;2022-10-31T04:33:38;3.35;;;0.63;;
34359;SDS011;20624;55.870;26.506;2022-10-31T04:36:05;2.15;;;0.30;;
34359;SDS011;20624;55.870;26.506;2022-10-31T04:38:33;4.13;;;0.73;;
34359;SDS011;20624;55.870;26.506;2022-10-31T04:41:01;1.75;;;0.30;;
34359;SDS011;20624;55.870;26.506;2022-10-31T04:43:29;3.25;;;0.57;;
34359;SDS011;20624;55.870;26.506;2022-10-31T04:45:56;3.58;;;0.45;;
34359;SDS011;20624;55.870;26.506;2022-10-31T04:48:24;1.25;;;0.10;;
34359;SDS011;20624;55.870;26.506;2022-10-31T04:50:51;1.63;;;0.30;;
34359;SDS011;20624;55.870;26.506;2022-10-31T04:53:19;3.20;;;0.38;;
34359;SDS011;20624;55.870;26.506;2022-10-31T04:55:46;2.63;;;0.35;;
34359;SDS011;20624;55.870;26.506;2022-10-31T04:58:14;3.28;;;0.40;;
34359;SDS011;20624;55.870;26.506;2022-10-31T05:00:44;2.65;;;0.57;;
34359;SDS011;20624;55.870;26.506;2022-10-31T05:03:11;4.22;;;0.60;;
34359;SDS011;20624;55.870;26.506;2022-10-31T05:05:39;0.13;;;0.10;;
34359;SDS011;20624;55.870;26.506;2022-10-31T05:08:08;1.50;;;0.20;;
34359;SDS011;20624;55.870;26.506;2022-10-31T05:10:36;4.85;;;0.65;;
34359;SDS011;20624;55.870;26.506;2022-10-31T05:13:04;1.63;;;0.25;;
34359;SDS011;20624;55.870;26.506;2022-10-31T05:15:32;1.98;;;0.30;;
34359;SDS011;20624;55.870;26.506;2022-10-31T05:17:59;1.05;;;0.17;;
34359;SDS011;20624;55.870;26.506;2022-10-31T05:20:28;1.15;;;0.17;;
34359;SDS011;20624;55.870;26.506;2022-10-31T05:22:57;1.85;;;0.20;;
34359;SDS011;20624;55.870;26.506;2022-10-31T05:25:27;9.43;;;1.25;;
34359;SDS011;20624;55.870;26.506;2022-10-31T05:27:55;7.00;;;0.88;;
34359;SDS011;20624;55.870;26.506;2022-10-31T05:30:26;7.50;;;0.93;;
34359;SDS011;20624;55.870;26.506;2022-10-31T05:32:57;3.00;;;0.40;;
34359;SDS011;20624;55.870;26.506;2022-10-31T05:35:27;3.30;;;0.45;;
34359;SDS011;20624;55.870;26.506;2022-10-31T05:37:56;20.00;;;2.72;;
34359;SDS011;20624;55.870;26.506;2022-10-31T05:40:24;1.88;;;0.30;;
34359;SDS011;20624;55.870;26.506;2022-10-31T05:42:53;18.02;;;2.45;;
34359;SDS011;20624;55.870;26.506;2022-10-31T05:45:20;22.95;;;3.03;;
34359;SDS011;20624;55.870;26.506;2022-10-31T05:47:52;12.90;;;1.70;;
34359;SDS011;20624;55.870;26.506;2022-10-31T05:50:19;1.17;;;0.20;;
34359;SDS011;20624;55.870;26.506;2022-10-31T05:52:53;5.45;;;0.75;;
34359;SDS011;20624;55.870;26.506;2022-10-31T05:55:22;9.15;;;1.20;;
34359;SDS011;20624;55.870;26.506;2022-10-31T05:57:52;8.32;;;1.15;;
34359;SDS011;20624;55.870;26.506;2022-10-31T06:00:20;28.33;;;3.65;;
34359;SDS011;20624;55.870;26.506;2022-10-31T06:02:48;30.48;;;4.15;;
34359;SDS011;20624;55.870;26.506;2022-10-31T06:05:16;11.55;;;1.50;;
34359;SDS011;20624;55.870;26.506;2022-10-31T06:07:46;21.02;;;2.85;;
34359;SDS011;20624;55.870;26.506;2022-10-31T06:10:14;14.63;;;2.03;;
34359;SDS011;20624;55.870;26.506;2022-10-31T06:12:42;14.05;;;1.80;;
34359;SDS011;20624;55.870;26.506;2022-10-31T06:15:09;17.33;;;2.38;;
34359;SDS011;20624;55.870;26.506;2022-10-31T06:17:37;21.35;;;2.90;;
34359;SDS011;20624;55.870;26.506;2022-10-31T06:20:05;16.02;;;2.15;;
34359;SDS011;20624;55.870;26.506;2022-10-31T06:22:33;20.98;;;2.72;;
34359;SDS011;20624;55.870;26.506;2022-10-31T06:25:01;22.23;;;3.13;;
34359;SDS011;20624;55.870;26.506;2022-10-31T06:27:28;25.50;;;3.45;;
34359;SDS011;20624;55.870;26.506;2022-10-31T06:29:56;19.05;;;2.63;;
34359;SDS011;20624;55.870;26.506;2022-10-31T06:32:28;7.75;;;1.05;;
34359;SDS011;20624;55.870;26.506;2022-10-31T06:34:55;23.38;;;3.17;;
34359;SDS011;20624;55.870;26.506;2022-10-31T06:37:23;13.27;;;1.80;;
34359;SDS011;20624;55.870;26.506;2022-10-31T06:39:54;30.35;;;4.03;;
34359;SDS011;20624;55.870;26.506;2022-10-31T06:42:22;31.13;;;4.32;;
34359;SDS011;20624;55.870;26.506;2022-10-31T06:44:49;10.32;;;1.58;;
34359;SDS011;20624;55.870;26.506;2022-10-31T06:47:17;19.40;;;2.80;;
34359;SDS011;20624;55.870;26.506;2022-10-31T06:49:45;24.90;;;3.40;;
34359;SDS011;20624;55.870;26.506;2022-10-31T06:52:12;16.77;;;2.50;;
34359;SDS011;20624;55.870;26.506;2022-10-31T06:54:40;16.95;;;2.50;;
34359;SDS011;20624;55.870;26.506;2022-10-31T06:57:08;19.83;;;2.78;;
34359;SDS011;20624;55.870;26.506;2022-10-31T06:59:35;30.33;;;3.88;;
34359;SDS011;20624;55.870;26.506;2022-10-31T07:02:03;30.75;;;4.65;;
34359;SDS011;20624;55.870;26.506;2022-10-31T07:04:30;28.80;;;4.07;;
34359;SDS011;20624;55.870;26.506;2022-10-31T07:06:58;20.27;;;2.97;;
34359;SDS011;20624;55.870;26.506;2022-10-31T07:09:26;30.80;;;4.43;;
34359;SDS011;20624;55.870;26.506;2022-10-31T07:11:54;30.05;;;4.47;;
34359;SDS011;20624;55.870;26.506;2022-10-31T07:14:22;29.52;;;4.30;;
34359;SDS011;20624;55.870;26.506;2022-10-31T07:16:49;25.25;;;3.67;;
34359;SDS011;20624;55.870;26.506;2022-10-31T07:19:19;23.60;;;3.70;;
34359;SDS011;20624;55.870;26.506;2022-10-31T07:21:47;28.00;;;4.07;;
34359;SDS011;20624;55.870;26.506;2022-10-31T07:24:15;18.58;;;2.88;;
34359;SDS011;20624;55.870;26.506;2022-10-31T07:26:42;20.40;;;3.22;;
34359;SDS011;20624;55.870;26.506;2022-10-31T07:29:12;30.25;;;4.32;;
34359;SDS011;20624;55.870;26.506;2022-10-31T07:31:40;37.15;;;5.28;;
34359;SDS011;20624;55.870;26.506;2022-10-31T07:34:08;35.45;;;5.03;;
34359;SDS011;20624;55.870;26.506;2022-10-31T07:36:35;23.85;;;3.85;;
34359;SDS011;20624;55.870;26.506;2022-10-31T07:39:03;44.20;;;6.65;;
34359;SDS011;20624;55.870;26.506;2022-10-31T07:41:31;45.50;;;6.68;;
34359;SDS011;20624;55.870;26.506;2022-10-31T07:43:59;44.30;;;6.57;;
34359;SDS011;20624;55.870;26.506;2022-10-31T07:46:27;45.05;;;6.38;;
34359;SDS011;20624;55.870;26.506;2022-10-31T07:48:56;29.13;;;4.68;;
34359;SDS011;20624;55.870;26.506;2022-10-31T07:51:23;20.23;;;3.25;;
34359;SDS011;20624;55.870;26.506;2022-10-31T07:53:52;27.25;;;4.55;;
34359;SDS011;20624;55.870;26.506;2022-10-31T07:56:20;39.70;;;6.25;;
34359;SDS011;20624;55.870;26.506;2022-10-31T07:58:49;21.33;;;3.58;;
34359;SDS011;20624;55.870;26.506;2022-10-31T08:01:17;25.65;;;4.28;;
34359;SDS011;20624;55.870;26.506;2022-10-31T08:03:45;35.15;;;5.75;;
34359;SDS011;20624;55.870;26.506;2022-10-31T08:06:13;25.92;;;4.22;;
34359;SDS011;20624;55.870;26.506;2022-10-31T08:08:42;35.22;;;5.43;;
34359;SDS011;20624;55.870;26.506;2022-10-31T08:11:10;21.27;;;2.92;;
34359;SDS011;20624;55.870;26.506;2022-10-31T08:13:38;22.58;;;3.42;;
34359;SDS011;20624;55.870;26.506;2022-10-31T08:16:06;24.17;;;4.13;;
34359;SDS011;20624;55.870;26.506;2022-10-31T08:18:34;23.92;;;4.00;;
34359;SDS011;20624;55.870;26.506;2022-10-31T08:21:03;16.23;;;2.63;;
34359;SDS011;20624;55.870;26.506;2022-10-31T08:23:32;22.15;;;3.60;;
34359;SDS011;20624;55.870;26.506;2022-10-31T08:26:00;37.00;;;6.28;;
34359;SDS011;20624;55.870;26.506;2022-10-31T08:28:28;28.98;;;4.80;;
34359;SDS011;20624;55.870;26.506;2022-10-31T08:30:56;37.38;;;5.93;;
34359;SDS011;20624;55.870;26.506;2022-10-31T08:33:24;26.05;;;4.13;;
34359;SDS011;20624;55.870;26.506;2022-10-31T08:35:53;30.77;;;5.28;;
34359;SDS011;20624;55.870;26.506;2022-10-31T08:38:21;20.55;;;3.67;;
34359;SDS011;20624;55.870;26.506;2022-10-31T08:40:49;30.67;;;4.93;;
34359;SDS011;20624;55.870;26.506;2022-10-31T08:43:17;27.02;;;4.78;;
34359;SDS011;20624;55.870;26.506;2022-10-31T08:45:47;53.10;;;8.80;;
34359;SDS011;20624;55.870;26.506;2022-10-31T08:48:16;35.95;;;5.38;;
34359;SDS011;20624;55.870;26.506;2022-10-31T08:50:45;38.35;;;5.95;;
34359;SDS011;20624;55.870;26.506;2022-10-31T08:53:15;35.70;;;5.63;;
34359;SDS011;20624;55.870;26.506;2022-10-31T08:55:45;31.88;;;4.95;;
34359;SDS011;20624;55.870;26.506;2022-10-31T08:58:14;24.90;;;3.85;;
34359;SDS011;20624;55.870;26.506;2022-10-31T09:00:43;38.72;;;6.07;;
34359;SDS011;20624;55.870;26.506;2022-10-31T09:03:12;56.17;;;8.60;;
34359;SDS011;20624;55.870;26.506;2022-10-31T09:05:41;55.22;;;8.30;;
34359;SDS011;20624;55.870;26.506;2022-10-31T09:08:09;28.20;;;4.53;;
34359;SDS011;20624;55.870;26.506;2022-10-31T09:10:42;30.42;;;4.63;;
34359;SDS011;20624;55.870;26.506;2022-10-31T09:13:11;26.00;;;4.15;;
34359;SDS011;20624;55.870;26.506;2022-10-31T09:15:44;32.92;;;4.72;;
34359;SDS011;20624;55.870;26.506;2022-10-31T09:18:14;29.60;;;4.50;;
34359;SDS011;20624;55.870;26.506;2022-10-31T09:20:43;44.08;;;6.93;;
34359;SDS011;20624;55.870;26.506;2022-10-31T09:23:16;32.15;;;5.22;;
34359;SDS011;20624;55.870;26.506;2022-10-31T09:25:49;35.22;;;5.60;;
34359;SDS011;20624;55.870;26.506;2022-10-31T09:28:19;39.53;;;6.45;;
34359;SDS011;20624;55.870;26.506;2022-10-31T09:30:49;26.17;;;4.15;;
34359;SDS011;20624;55.870;26.506;2022-10-31T09:33:18;38.90;;;6.10;;
34359;SDS011;20624;55.870;26.506;2022-10-31T09:35:47;23.20;;;3.95;;
34359;SDS011;20624;55.870;26.506;2022-10-31T09:38:25;26.77;;;4.25;;
34359;SDS011;20624;55.870;26.506;2022-10-31T09:43:49;16.95;;;2.88;;
34359;SDS011;20624;55.870;26.506;2022-10-31T09:49:51;25.13;;;3.97;;
34359;SDS011;20624;55.870;26.506;2022-10-31T09:52:30;18.15;;;3.08;;
34359;SDS011;20624;55.870;26.506;2022-10-31T09:55:21;25.80;;;4.05;;
34359;SDS011;20624;55.870;26.506;2022-10-31T09:57:58;40.08;;;6.45;;
34359;SDS011;20624;55.870;26.506;2022-10-31T10:00:26;43.00;;;6.97;;
34359;SDS011;20624;55.870;26.506;2022-10-31T10:03:10;23.75;;;3.88;;
34359;SDS011;20624;55.870;26.506;2022-10-31T10:05:45;19.38;;;3.15;;
34359;SDS011;20624;55.870;26.506;2022-10-31T10:08:21;10.45;;;1.80;;
34359;SDS011;20624;55.870;26.506;2022-10-31T10:13:28;42.28;;;7.18;;
34359;SDS011;20624;55.870;26.506;2022-10-31T10:24:41;22.38;;;3.83;;
34359;SDS011;20624;55.870;26.506;2022-10-31T10:27:39;37.10;;;6.57;;
34359;SDS011;20624;55.870;26.506;2022-10-31T10:30:18;23.75;;;3.97;;
34359;SDS011;20624;55.870;26.506;2022-10-31T10:32:55;24.50;;;4.38;;
34359;SDS011;20624;55.870;26.506;2022-10-31T10:35:33;22.08;;;3.83;;
34359;SDS011;20624;55.870;26.506;2022-10-31T10:41:07;22.15;;;4.10;;
34359;SDS011;20624;55.870;26.506;2022-10-31T10:43:40;37.45;;;6.32;;
34359;SDS011;20624;55.870;26.506;2022-10-31T10:49:23;23.55;;;4.03;;
34359;SDS011;20624;55.870;26.506;2022-10-31T10:52:25;18.67;;;3.42;;
34359;SDS011;20624;55.870;26.506;2022-10-31T10:58:07;31.25;;;5.18;;
34359;SDS011;20624;55.870;26.506;2022-10-31T11:00:40;13.55;;;2.40;;
34359;SDS011;20624;55.870;26.506;2022-10-31T11:03:08;17.60;;;2.85;;
34359;SDS011;20624;55.870;26.506;2022-10-31T11:05:44;22.23;;;3.83;;
34359;SDS011;20624;55.870;26.506;2022-10-31T11:13:28;37.60;;;6.10;;
34359;SDS011;20624;55.870;26.506;2022-10-31T11:16:04;17.35;;;2.92;;
34359;SDS011;20624;55.870;26.506;2022-10-31T11:18:39;24.80;;;4.13;;
34359;SDS011;20624;55.870;26.506;2022-10-31T11:21:17;19.38;;;3.25;;
34359;SDS011;20624;55.870;26.506;2022-10-31T11:23:46;15.02;;;2.60;;
34359;SDS011;20624;55.870;26.506;2022-10-31T11:26:20;13.00;;;2.42;;
34359;SDS011;20624;55.870;26.506;2022-10-31T11:28:58;17.88;;;3.00;;
34359;SDS011;20624;55.870;26.506;2022-10-31T11:31:28;40.83;;;6.45;;
34359;SDS011;20624;55.870;26.506;2022-10-31T11:34:00;30.30;;;4.93;;
34359;SDS011;20624;55.870;26.506;2022-10-31T11:36:30;21.75;;;3.38;;
34359;SDS011;20624;55.870;26.506;2022-10-31T11:39:02;28.85;;;5.15;;
34359;SDS011;20624;55.870;26.506;2022-10-31T11:41:31;26.60;;;4.40;;
34359;SDS011;20624;55.870;26.506;2022-10-31T11:44:10;26.38;;;4.22;;
34359;SDS011;20624;55.870;26.506;2022-10-31T11:46:40;35.05;;;5.53;;
34359;SDS011;20624;55.870;26.506;2022-10-31T11:52:20;34.00;;;5.75;;
34359;SDS011;20624;55.870;26.506;2022-10-31T11:54:58;36.58;;;6.30;;
34359;SDS011;20624;55.870;26.506;2022-10-31T11:57:56;40.15;;;6.45;;
34359;SDS011;20624;55.870;26.506;2022-10-31T12:03:14;65.35;;;10.88;;
34359;SDS011;20624;55.870;26.506;2022-10-31T12:06:02;39.58;;;6.85;;
34359;SDS011;20624;55.870;26.506;2022-10-31T12:08:38;31.67;;;5.28;;
34359;SDS011;20624;55.870;26.506;2022-10-31T12:11:20;36.60;;;5.53;;
34359;SDS011;20624;55.870;26.506;2022-10-31T12:25:16;54.67;;;9.05;;
34359;SDS011;20624;55.870;26.506;2022-10-31T12:39:23;19.27;;;3.03;;
34359;SDS011;20624;55.870;26.506;2022-10-31T12:50:58;34.25;;;5.35;;
34359;SDS011;20624;55.870;26.506;2022-10-31T12:59:07;18.70;;;3.25;;
34359;SDS011;20624;55.870;26.506;2022-10-31T13:04:33;21.00;;;3.30;;
34359;SDS011;20624;55.870;26.506;2022-10-31T13:07:07;30.63;;;4.65;;
34359;SDS011;20624;55.870;26.506;2022-10-31T13:12:41;22.85;;;3.92;;
34359;SDS011;20624;55.870;26.506;2022-10-31T13:15:17;23.83;;;3.85;;
34359;SDS011;20624;55.870;26.506;2022-10-31T13:17:52;22.13;;;3.67;;
34359;SDS011;20624;55.870;26.506;2022-10-31T13:20:33;34.83;;;5.32;;
34359;SDS011;20624;55.870;26.506;2022-10-31T13:26:06;33.83;;;5.47;;
34359;SDS011;20624;55.870;26.506;2022-10-31T13:31:28;19.77;;;3.40;;
34359;SDS011;20624;55.870;26.506;2022-10-31T13:34:01;21.33;;;3.25;;
34359;SDS011;20624;55.870;26.506;2022-10-31T13:36:40;22.13;;;3.60;;
34359;SDS011;20624;55.870;26.506;2022-10-31T13:39:23;35.17;;;5.85;;
34359;SDS011;20624;55.870;26.506;2022-10-31T13:44:54;25.05;;;4.20;;
34359;SDS011;20624;55.870;26.506;2022-10-31T13:47:28;16.50;;;2.72;;
34359;SDS011;20624;55.870;26.506;2022-10-31T13:58:37;17.02;;;2.78;;
34359;SDS011;20624;55.870;26.506;2022-10-31T14:01:11;19.15;;;2.75;;
34359;SDS011;20624;55.870;26.506;2022-10-31T14:03:47;17.58;;;2.83;;
34359;SDS011;20624;55.870;26.506;2022-10-31T14:06:45;13.10;;;1.98;;
34359;SDS011;20624;55.870;26.506;2022-10-31T14:11:51;16.42;;;2.85;;
34359;SDS011;20624;55.870;26.506;2022-10-31T14:14:19;14.95;;;3.10;;
34359;SDS011;20624;55.870;26.506;2022-10-31T14:16:53;21.52;;;4.28;;
34359;SDS011;20624;55.870;26.506;2022-10-31T14:19:22;18.35;;;3.85;;
34359;SDS011;20624;55.870;26.506;2022-10-31T14:21:51;16.60;;;3.25;;
34359;SDS011;20624;55.870;26.506;2022-10-31T14:27:34;29.33;;;4.88;;
34359;SDS011;20624;55.870;26.506;2022-10-31T14:29:50;12.55;;;2.75;;
34359;SDS011;20624;55.870;26.506;2022-10-31T14:32:22;26.60;;;5.10;;
34359;SDS011;20624;55.870;26.506;2022-10-31T14:42:50;23.20;;;4.45;;
34359;SDS011;20624;55.870;26.506;2022-10-31T14:46:02;31.38;;;6.07;;
34359;SDS011;20624;55.870;26.506;2022-10-31T14:51:21;18.92;;;4.90;;
34359;SDS011;20624;55.870;26.506;2022-10-31T14:53:56;27.75;;;7.22;;
34359;SDS011;20624;55.870;26.506;2022-10-31T14:56:32;27.58;;;7.18;;
34359;SDS011;20624;55.870;26.506;2022-10-31T14:59:01;38.65;;;9.52;;
34359;SDS011;20624;55.870;26.506;2022-10-31T15:01:31;32.80;;;9.73;;
34359;SDS011;20624;55.870;26.506;2022-10-31T15:09:54;32.70;;;11.15;;
34359;SDS011;20624;55.870;26.506;2022-10-31T15:12:27;38.03;;;12.57;;
34359;SDS011;20624;55.870;26.506;2022-10-31T15:14:56;38.63;;;14.52;;
34359;SDS011;20624;55.870;26.506;2022-10-31T15:17:27;46.30;;;15.75;;
34359;SDS011;20624;55.870;26.506;2022-10-31T15:19:55;45.80;;;15.82;;
34359;SDS011;20624;55.870;26.506;2022-10-31T15:22:23;65.05;;;19.60;;
34359;SDS011;20624;55.870;26.506;2022-10-31T15:24:51;44.33;;;19.58;;
34359;SDS011;20624;55.870;26.506;2022-10-31T15:27:23;231.35;;;107.25;;
34359;SDS011;20624;55.870;26.506;2022-10-31T15:29:53;31.83;;;13.88;;
34359;SDS011;20624;55.870;26.506;2022-10-31T15:32:28;31.23;;;12.15;;
34359;SDS011;20624;55.870;26.506;2022-10-31T15:34:56;31.50;;;11.20;;
34359;SDS011;20624;55.870;26.506;2022-10-31T15:37:24;27.10;;;9.25;;
34359;SDS011;20624;55.870;26.506;2022-10-31T15:39:52;232.07;;;107.53;;
34359;SDS011;20624;55.870;26.506;2022-10-31T15:42:25;262.23;;;117.45;;
34359;SDS011;20624;55.870;26.506;2022-10-31T15:45:04;44.78;;;25.40;;
34359;SDS011;20624;55.870;26.506;2022-10-31T15:47:51;52.83;;;34.38;;
34359;SDS011;20624;55.870;26.506;2022-10-31T15:50:21;223.32;;;105.30;;
34359;SDS011;20624;55.870;26.506;2022-10-31T15:52:54;242.00;;;110.32;;
34359;SDS011;20624;55.870;26.506;2022-10-31T15:55:22;177.98;;;90.47;;
34359;SDS011;20624;55.870;26.506;2022-10-31T15:57:53;296.85;;;124.28;;
34359;SDS011;20624;55.870;26.506;2022-10-31T16:00:30;192.77;;;92.28;;
34359;SDS011;20624;55.870;26.506;2022-10-31T16:13:36;115.22;;;67.13;;
34359;SDS011;20624;55.870;26.506;2022-10-31T16:16:12;158.55;;;78.65;;
34359;SDS011;20624;55.870;26.506;2022-10-31T16:19:02;49.33;;;26.63;;
34359;SDS011;20624;55.870;26.506;2022-10-31T16:21:35;55.92;;;42.05;;
34359;SDS011;20624;55.870;26.506;2022-10-31T16:24:10;147.32;;;75.88;;
34359;SDS011;20624;55.870;26.506;2022-10-31T16:26:40;106.22;;;62.22;;
34359;SDS011;20624;55.870;26.506;2022-10-31T16:29:22;94.07;;;59.53;;
34359;SDS011;20624;55.870;26.506;2022-10-31T16:31:51;114.80;;;65.53;;
34359;SDS011;20624;55.870;26.506;2022-10-31T16:34:22;115.43;;;62.60;;
34359;SDS011;20624;55.870;26.506;2022-10-31T16:36:52;123.53;;;70.68;;
34359;SDS011;20624;55.870;26.506;2022-10-31T16:39:20;100.25;;;62.60;;
34359;SDS011;20624;55.870;26.506;2022-10-31T16:41:52;101.55;;;59.15;;
34359;SDS011;20624;55.870;26.506;2022-10-31T16:44:25;93.30;;;59.80;;
34359;SDS011;20624;55.870;26.506;2022-10-31T16:47:36;98.03;;;61.63;;
34359;SDS011;20624;55.870;26.506;2022-10-31T16:49:48;105.07;;;62.33;;
34359;SDS011;20624;55.870;26.506;2022-10-31T16:52:16;79.30;;;54.92;;
34359;SDS011;20624;55.870;26.506;2022-10-31T16:54:46;62.00;;;45.58;;
34359;SDS011;20624;55.870;26.506;2022-10-31T16:57:15;58.50;;;41.95;;
34359;SDS011;20624;55.870;26.506;2022-10-31T16:59:51;90.38;;;56.38;;
34359;SDS011;20624;55.870;26.506;2022-10-31T17:02:21;91.43;;;59.40;;
34359;SDS011;20624;55.870;26.506;2022-10-31T17:04:49;65.53;;;47.65;;
34359;SDS011;20624;55.870;26.506;2022-10-31T17:07:22;58.05;;;46.70;;
34359;SDS011;20624;55.870;26.506;2022-10-31T17:09:49;60.92;;;46.42;;
34359;SDS011;20624;55.870;26.506;2022-10-31T17:12:18;70.75;;;49.60;;
34359;SDS011;20624;55.870;26.506;2022-10-31T17:14:53;62.17;;;48.28;;
34359;SDS011;20624;55.870;26.506;2022-10-31T17:17:20;49.88;;;41.38;;
34359;SDS011;20624;55.870;26.506;2022-10-31T17:19:49;53.13;;;44.15;;
34359;SDS011;20624;55.870;26.506;2022-10-31T17:22:17;49.72;;;39.97;;
34359;SDS011;20624;55.870;26.506;2022-10-31T17:24:47;76.53;;;53.10;;
34359;SDS011;20624;55.870;26.506;2022-10-31T17:27:14;50.55;;;43.00;;